Time;durP1;ratioP1;P1;durP2;ratioP2;P2;SDS_P1;SDS_P2;PMS_P1;PMS_P2;Temp;Humidity;BMP_temperature;BMP_pressure;BME280_temperature;BME280_humidity;BME280_pressure;Samples;Min_cycle;Max_cycle;Signal;HPM_P1;HPM_P2
2022/07/14 00:00:34;;;;;;;;;5.75;5.75;;;;;27.83;34.61;98783.47;6263082;27;96643;-62
2022/07/14 00:03:39;;;;;;;;;5.00;5.00;;;;;27.80;34.76;98773.09;6261235;27;97655;-60
2022/07/14 00:06:43;;;;;;;;;7.00;7.00;;;;;27.79;34.82;98774.22;6262243;27;97006;-62
2022/07/14 00:09:46;;;;;;;;;7.00;6.00;;;;;27.75;34.54;98776.06;6263050;27;97489;-61
2022/07/14 00:12:50;;;;;;;;;7.00;7.00;;;;;27.73;34.90;98777.53;6261403;27;97479;-62
2022/07/14 00:15:53;;;;;;;;;5.40;5.40;;;;;27.68;35.17;98770.22;6247192;27;97249;-60
2022/07/14 00:18:58;;;;;;;;;4.40;4.40;;;;;27.59;35.40;98761.16;6262539;27;96377;-59
2022/07/14 00:22:01;;;;;;;;;7.00;6.00;;;;;27.62;35.18;98770.75;6261703;27;97240;-60
2022/07/14 00:25:06;;;;;;;;;6.00;6.00;;;;;27.58;35.17;98763.13;6262168;27;97356;-61
2022/07/14 00:28:10;;;;;;;;;7.00;6.00;;;;;27.56;34.93;98759.88;6250353;27;97580;-63
2022/07/14 00:31:13;;;;;;;;;6.00;6.00;;;;;27.52;35.16;98758.94;6262557;27;96613;-62
2022/07/14 00:34:18;;;;;;;;;8.00;8.00;;;;;27.48;35.26;98759.91;6244004;27;97862;-59
2022/07/14 00:37:21;;;;;;;;;7.00;6.50;;;;;27.42;35.18;98753.75;6262429;27;96385;-63
2022/07/14 00:40:25;;;;;;;;;6.40;6.00;;;;;27.39;35.21;98757.19;6247952;27;96780;-59
2022/07/14 00:43:28;;;;;;;;;6.00;6.00;;;;;27.36;35.44;98752.34;6246959;27;96697;-59
2022/07/14 00:46:31;;;;;;;;;6.20;5.80;;;;;27.30;35.67;98750.09;6252308;27;97710;-62
2022/07/14 00:49:37;;;;;;;;;8.00;8.00;;;;;27.25;35.71;98753.88;6266947;27;96898;-63
2022/07/14 00:52:42;;;;;;;;;7.00;7.00;;;;;27.22;35.83;98753.72;6267201;27;97093;-61
2022/07/14 00:55:46;;;;;;;;;6.80;6.80;;;;;27.15;35.53;98752.28;6262577;27;97414;-60
2022/07/14 00:58:49;;;;;;;;;7.20;6.60;;;;;27.15;35.86;98754.25;6265139;27;96319;-64
2022/07/14 01:01:53;;;;;;;;;8.00;7.60;;;;;27.12;35.32;98754.94;6247462;27;97036;-60
2022/07/14 01:04:57;;;;;;;;;6.00;6.00;;;;;27.08;35.50;98748.41;6256951;27;96877;-63
2022/07/14 01:08:02;;;;;;;;;6.00;6.00;;;;;27.04;35.73;98742.75;6259829;27;97555;-60
2022/07/14 01:11:08;;;;;;;;;7.00;7.00;;;;;27.01;36.09;98737.88;6264233;27;96616;-62
2022/07/14 01:14:12;;;;;;;;;7.00;6.00;;;;;26.91;36.17;98721.66;6250825;27;97577;-59
2022/07/14 01:17:15;;;;;;;;;8.00;7.00;;;;;26.96;35.15;98732.53;6265564;27;96606;-64
2022/07/14 01:20:21;;;;;;;;;5.00;5.00;;;;;26.96;34.87;98732.53;6241133;27;99453;-64
2022/07/14 01:23:25;;;;;;;;;7.40;7.40;;;;;26.95;34.67;98741.97;6265707;27;96922;-65
2022/07/14 01:26:29;;;;;;;;;6.20;6.20;;;;;26.92;35.21;98737.13;6252807;27;96891;-62
2022/07/14 01:29:32;;;;;;;;;9.00;9.00;;;;;26.88;34.99;98736.13;6248041;27;97711;-63
2022/07/14 01:32:36;;;;;;;;;6.40;6.40;;;;;26.83;35.24;98727.19;6252063;27;97458;-61
2022/07/14 01:35:39;;;;;;;;;6.00;6.00;;;;;26.81;35.25;98723.94;6251400;27;97806;-61
2022/07/14 01:38:44;;;;;;;;;6.00;6.00;;;;;26.76;35.50;98722.19;6264719;27;96582;-62
2022/07/14 01:41:49;;;;;;;;;7.00;6.25;;;;;26.73;35.68;98722.84;6265696;27;97120;-61
2022/07/14 01:44:52;;;;;;;;;6.00;6.00;;;;;26.72;35.42;98721.22;6249029;27;96756;-59
2022/07/14 01:47:56;;;;;;;;;9.00;8.00;;;;;26.71;34.90;98720.41;6259251;27;97568;-61
2022/07/14 01:50:59;;;;;;;;;9.00;8.00;;;;;26.72;34.97;98710.97;6263461;27;97052;-61
2022/07/14 01:54:05;;;;;;;;;7.00;6.60;;;;;26.75;34.57;98715.00;6262969;27;97500;-61
2022/07/14 01:57:09;;;;;;;;;7.00;6.00;;;;;26.77;34.62;98709.16;6261000;27;97010;-61
2022/07/14 02:00:14;;;;;;;;;7.00;6.75;;;;;26.78;34.28;98705.25;6245083;27;98030;-60
2022/07/14 02:03:25;;;;;;;;;6.00;6.00;;;;;26.82;34.24;98714.50;6256004;27;96766;-62
2022/07/14 02:06:30;;;;;;;;;8.00;8.00;;;;;26.83;34.26;98716.13;6254550;27;97487;-60
2022/07/14 02:12:59;;;;;;;;;8.00;7.00;;;;;26.87;34.42;98711.59;6238943;27;97568;-58
2022/07/14 02:16:03;;;;;;;;;4.33;4.33;;;;;26.70;34.08;98693.88;6229980;27;97976;-61
2022/07/14 02:19:08;;;;;;;;;8.00;8.00;;;;;26.81;34.20;98705.41;6242260;27;96482;-61
2022/07/14 02:22:11;;;;;;;;;7.20;7.20;;;;;26.87;34.74;98709.63;6252868;27;97380;-61
2022/07/14 02:25:16;;;;;;;;;5.80;5.00;;;;;26.87;34.65;98708.81;6258892;27;97174;-60
2022/07/14 02:28:19;;;;;;;;;8.00;7.00;;;;;26.89;34.58;98715.63;6263796;27;96754;-63
2022/07/14 02:31:23;;;;;;;;;6.00;6.00;;;;;26.90;34.76;98705.38;6244759;27;98821;-61
2022/07/14 02:34:26;;;;;;;;;8.40;8.00;;;;;26.90;34.95;98711.72;6242350;27;97112;-59
2022/07/14 02:37:30;;;;;;;;;9.00;9.00;;;;;26.77;35.23;98689.81;6264398;27;97454;-61
2022/07/14 02:40:35;;;;;;;;;9.00;9.00;;;;;26.90;35.39;98713.69;6263495;27;96979;-59
2022/07/14 02:43:38;;;;;;;;;7.40;6.00;;;;;26.86;35.42;98709.94;6262182;27;97803;-62
2022/07/14 02:46:43;;;;;;;;;9.00;9.00;;;;;26.84;35.99;98712.22;6257035;27;97451;-60
2022/07/14 02:49:47;;;;;;;;;8.50;7.50;;;;;26.83;36.08;98716.13;6252029;27;97931;-58
2022/07/14 02:52:52;;;;;;;;;7.00;7.00;;;;;26.79;36.16;98713.22;6263878;27;96939;-59
2022/07/14 02:56:07;;;;;;;;;6.00;6.00;;;;;26.66;35.95;98698.47;6258319;27;96724;-60
2022/07/14 02:59:14;;;;;;;;;9.50;9.50;;;;;26.71;35.86;98703.81;6245641;27;96857;-58
2022/07/14 03:02:22;;;;;;;;;7.00;7.00;;;;;26.79;35.89;98721.50;6257342;27;97395;-57
2022/07/14 03:05:27;;;;;;;;;8.00;7.00;;;;;26.68;35.93;98704.47;6245451;27;97058;-60
2022/07/14 03:08:31;;;;;;;;;8.00;8.00;;;;;26.77;36.05;98717.47;6245364;27;96669;-61
2022/07/14 03:11:36;;;;;;;;;6.50;6.00;;;;;26.78;35.56;98713.56;6245959;27;96941;-58
2022/07/14 03:14:41;;;;;;;;;9.00;9.00;;;;;26.79;36.05;98715.97;6228411;27;97745;-60
2022/07/14 03:17:44;;;;;;;;;8.00;7.40;;;;;26.79;35.50;98709.63;6228347;27;97614;-58
2022/07/14 03:20:48;;;;;;;;;8.00;7.40;;;;;26.79;36.03;98702.13;6245211;27;96946;-60
2022/07/14 03:23:51;;;;;;;;;8.00;7.00;;;;;26.80;36.52;98706.53;6245106;27;96942;-61
2022/07/14 03:27:00;;;;;;;;;9.40;9.40;;;;;26.84;36.56;98703.91;6245208;27;96992;-61
2022/07/14 03:30:04;;;;;;;;;9.00;7.60;;;;;26.84;36.46;98706.69;6236173;27;96882;-59
2022/07/14 03:33:08;;;;;;;;;9.00;8.00;;;;;26.87;36.31;98704.09;6248436;27;96976;-58
2022/07/14 03:36:11;;;;;;;;;7.75;7.00;;;;;26.92;35.95;98709.44;6244630;27;97535;-61
2022/07/14 03:39:16;;;;;;;;;7.60;7.60;;;;;26.98;35.55;98710.06;6224178;27;97914;-60
2022/07/14 03:42:21;;;;;;;;;7.00;7.00;;;;;27.03;35.15;98707.09;6210063;27;96753;-60
2022/07/14 03:45:26;;;;;;;;;8.75;8.75;;;;;27.08;35.34;98712.44;6243640;27;97539;-62
2022/07/14 03:48:29;;;;;;;;;7.00;7.00;;;;;27.15;34.95;98712.72;6241417;27;96992;-61
2022/07/14 03:51:41;;;;;;;;;8.00;7.00;;;;;27.19;34.83;98716.44;6227980;27;98197;-61
2022/07/14 03:54:46;;;;;;;;;8.80;8.20;;;;;27.22;34.88;98714.97;6244918;27;97151;-60
2022/07/14 03:57:54;;;;;;;;;7.00;7.00;;;;;27.25;34.44;98715.13;6244868;27;97509;-58
2022/07/14 04:00:57;;;;;;;;;8.40;8.00;;;;;27.28;34.85;98710.84;6238995;27;97718;-58
2022/07/14 04:04:03;;;;;;;;;7.00;7.00;;;;;27.29;35.25;98712.47;6235490;27;97936;-61
2022/07/14 04:07:08;;;;;;;;;7.00;6.20;;;;;27.29;34.99;98715.25;6241785;27;97137;-59
2022/07/14 04:10:12;;;;;;;;;7.00;7.00;;;;;27.32;35.46;98717.38;6209958;27;98468;-59
2022/07/14 04:13:18;;;;;;;;;7.75;7.00;;;;;27.31;35.21;98724.84;6243399;27;96812;-59
2022/07/14 04:16:22;;;;;;;;;8.60;8.00;;;;;27.33;35.22;98721.72;6243748;27;98312;-61
2022/07/14 04:19:28;;;;;;;;;8.25;8.25;;;;;27.33;35.82;98724.50;6242474;27;97448;-63
2022/07/14 04:22:32;;;;;;;;;8.00;8.00;;;;;27.34;34.91;98723.34;6259987;27;96696;-62
2022/07/14 04:25:47;;;;;;;;;5.40;5.00;;;;;27.35;34.16;98709.19;6248903;27;97569;-61
2022/07/14 04:28:53;;;;;;;;;10.00;10.00;;;;;27.35;34.94;98711.16;6254759;27;97440;-58
2022/07/14 04:31:56;;;;;;;;;9.00;8.00;;;;;27.35;35.36;98713.91;6238828;27;96914;-59
2022/07/14 04:35:01;;;;;;;;;8.00;7.75;;;;;27.35;35.35;98708.38;6242126;27;97052;-62
2022/07/14 04:38:05;;;;;;;;;11.00;10.40;;;;;27.36;35.12;98704.47;6230513;27;97997;-58
2022/07/14 04:41:17;;;;;;;;;5.80;5.80;;;;;27.37;35.48;98704.09;6260689;27;97494;-61
2022/07/14 04:44:23;;;;;;;;;7.00;6.00;;;;;27.41;35.24;98704.28;6240750;27;97072;-58
2022/07/14 04:47:26;;;;;;;;;6.00;6.00;;;;;27.48;35.20;98704.53;6246114;27;97471;-60
2022/07/14 04:53:51;;;;;;;;;6.40;6.40;;;;;27.59;34.37;98694.72;6259938;27;97168;-60
2022/07/14 04:57:05;;;;;;;;;5.60;5.60;;;;;27.66;34.58;98694.97;6250522;27;97465;-59
2022/07/14 05:00:17;;;;;;;;;8.00;8.00;;;;;27.74;34.35;98690.50;6243800;27;97283;-62
2022/07/14 05:03:20;;;;;;;;;6.50;6.50;;;;;27.80;34.18;98698.28;6250956;27;96641;-58
2022/07/14 05:06:24;;;;;;;;;6.40;6.40;;;;;27.86;34.44;98693.31;6253258;27;97464;-61
2022/07/14 05:09:32;;;;;;;;;7.00;7.00;;;;;27.93;34.15;98690.81;6260992;27;97668;-61
2022/07/14 05:12:36;;;;;;;;;6.60;6.60;;;;;28.00;34.26;98682.78;6242332;27;97442;-59
2022/07/14 05:15:42;;;;;;;;;7.00;7.00;;;;;28.06;34.35;98675.03;6236215;27;98273;-62
2022/07/14 05:18:47;;;;;;;;;6.40;6.40;;;;;28.15;34.68;98676.59;6243292;27;96651;-60
2022/07/14 05:21:52;;;;;;;;;8.00;8.00;;;;;28.22;34.37;98674.09;6243470;27;97111;-61
2022/07/14 05:24:55;;;;;;;;;6.00;6.00;;;;;28.31;34.26;98688.66;6245361;27;97954;-60
2022/07/14 05:27:59;;;;;;;;;7.00;7.00;;;;;28.42;34.27;98687.06;6247961;27;97805;-61
2022/07/14 05:31:11;;;;;;;;;6.40;6.40;;;;;28.55;33.45;98695.41;6247975;27;97070;-55
2022/07/14 05:34:19;;;;;;;;;8.00;8.00;;;;;28.65;33.95;98698.53;6247221;27;97397;-60
2022/07/14 05:37:23;;;;;;;;;5.00;5.00;;;;;28.75;33.57;98700.88;6242710;27;97019;-53
2022/07/14 05:40:27;;;;;;;;;7.00;6.40;;;;;28.84;33.96;98709.91;6246745;27;97400;-56
2022/07/14 05:43:31;;;;;;;;;7.00;6.00;;;;;28.95;33.92;98704.72;6241054;27;97309;-62
2022/07/14 05:46:37;;;;;;;;;8.00;8.00;;;;;29.01;34.35;98702.53;6258814;27;96469;-63
2022/07/14 05:49:41;;;;;;;;;5.00;5.00;;;;;29.10;33.46;98709.56;6255252;27;96828;-62
2022/07/14 05:52:45;;;;;;;;;4.20;4.20;;;;;29.19;33.18;98707.47;6246944;27;98439;-62
2022/07/14 05:55:49;;;;;;;;;7.00;6.60;;;;;29.31;33.25;98709.47;6246377;27;98411;-59
2022/07/14 05:58:53;;;;;;;;;6.60;6.60;;;;;29.43;33.17;98714.19;6215658;27;97479;-64
2022/07/14 06:01:59;;;;;;;;;8.00;7.00;;;;;29.50;32.39;98709.66;6248157;27;96787;-59
2022/07/14 06:05:02;;;;;;;;;5.80;5.40;;;;;29.61;32.84;98707.22;6233111;27;96822;-60
2022/07/14 06:08:06;;;;;;;;;5.80;5.80;;;;;29.72;32.34;98705.53;6262130;27;96699;-58
2022/07/14 06:11:09;;;;;;;;;7.25;5.75;;;;;29.83;33.00;98706.66;6234015;27;99710;-61
2022/07/14 06:14:14;;;;;;;;;8.00;7.60;;;;;29.94;32.80;98705.03;6244688;27;97371;-59
2022/07/14 06:17:19;;;;;;;;;7.00;7.00;;;;;30.03;32.38;98697.34;6243394;27;96819;-60
2022/07/14 06:20:23;;;;;;;;;7.00;7.00;;;;;30.15;32.50;98702.06;6247621;27;96804;-62
2022/07/14 06:23:27;;;;;;;;;9.40;9.00;;;;;30.30;32.19;98706.81;6231548;27;97464;-61
2022/07/14 06:26:31;;;;;;;;;6.00;6.00;;;;;30.46;32.60;98702.13;6263055;27;96612;-62
2022/07/14 06:29:36;;;;;;;;;7.00;7.00;;;;;30.61;31.66;98710.84;6246520;27;96806;-58
2022/07/14 06:32:41;;;;;;;;;7.00;7.00;;;;;30.71;31.74;98704.75;6245937;27;97026;-63
2022/07/14 06:35:48;;;;;;;;;6.40;6.40;;;;;30.81;31.14;98702.22;6246995;27;97490;-59
2022/07/14 06:39:07;;;;;;;;;6.80;6.80;;;;;30.91;31.14;98704.47;6246210;27;97403;-59
2022/07/14 06:42:11;;;;;;;;;7.00;6.40;;;;;30.97;31.09;98703.03;6246393;27;96916;-62
2022/07/14 06:45:34;;;;;;;;;7.00;7.00;;;;;31.06;30.46;98704.84;6237930;28;98064;-61
2022/07/14 06:48:39;;;;;;;;;5.00;5.00;;;;;31.12;30.39;98703.41;6238041;28;97030;-61
2022/07/14 06:51:42;;;;;;;;;6.25;5.25;;;;;31.21;30.72;98704.00;6239413;28;98203;-60
2022/07/14 06:54:46;;;;;;;;;6.00;6.00;;;;;31.30;30.89;98701.84;6236689;27;97569;-57
2022/07/14 06:57:50;;;;;;;;;7.50;7.50;;;;;31.40;30.85;98699.28;6237964;27;97435;-60
2022/07/14 07:01:01;;;;;;;;;7.00;7.00;;;;;31.49;30.80;98701.88;6238226;27;97487;-56
2022/07/14 07:04:06;;;;;;;;;10.50;10.00;;;;;31.57;30.43;98697.31;6238424;27;96748;-64
2022/07/14 07:07:09;;;;;;;;;6.25;5.75;;;;;31.66;30.02;98704.28;6238029;27;97046;-62
2022/07/14 07:10:13;;;;;;;;;7.00;7.00;;;;;31.78;30.05;98708.88;6237211;28;100042;-60
2022/07/14 07:13:16;;;;;;;;;8.50;7.50;;;;;31.91;29.36;98713.16;6238746;27;96401;-55
2022/07/14 07:16:20;;;;;;;;;11.60;11.60;;;;;32.05;29.56;98707.88;6238176;27;97380;-61
2022/07/14 07:19:26;;;;;;;;;5.60;5.60;;;;;32.15;29.24;98717.66;6238481;28;96555;-56
2022/07/14 07:22:29;;;;;;;;;8.00;7.40;;;;;32.23;28.60;98719.41;6238630;28;97898;-64
2022/07/14 07:25:33;;;;;;;;;7.00;7.00;;;;;32.31;28.44;98714.75;6236508;28;96960;-61
2022/07/14 07:28:36;;;;;;;;;5.25;5.25;;;;;32.36;28.39;98728.41;6237862;28;97488;-56
2022/07/14 07:31:40;;;;;;;;;7.20;7.20;;;;;32.38;28.13;98712.91;6235632;27;99441;-55
2022/07/14 07:34:45;;;;;;;;;6.00;6.00;;;;;32.43;28.22;98723.78;6237912;28;96699;-58
2022/07/14 07:37:48;;;;;;;;;5.00;5.00;;;;;32.44;28.41;98725.41;6235965;27;96871;-56
2022/07/14 07:40:53;;;;;;;;;5.50;5.25;;;;;32.42;28.16;98719.38;6238800;27;97409;-61
2022/07/14 07:43:58;;;;;;;;;6.25;6.25;;;;;32.45;28.36;98727.00;6244115;27;97153;-67
2022/07/14 07:47:01;;;;;;;;;7.40;7.00;;;;;32.47;28.45;98727.44;6260513;27;97475;-61
2022/07/14 07:50:11;;;;;;;;;6.60;6.00;;;;;32.54;28.61;98721.19;6262808;27;97594;-59
2022/07/14 07:53:15;;;;;;;;;10.00;10.00;;;;;32.53;28.13;98702.81;6263216;27;97524;-62
2022/07/14 07:56:19;;;;;;;;;7.00;7.00;;;;;32.58;28.47;98700.53;6262172;27;97508;-59
2022/07/14 07:59:22;;;;;;;;;6.33;6.33;;;;;32.73;28.05;98711.97;6262852;27;96790;-57
2022/07/14 08:02:26;;;;;;;;;7.20;6.80;;;;;32.74;27.57;98722.78;6251031;27;97209;-57
2022/07/14 08:05:34;;;;;;;;;8.00;7.00;;;;;32.76;27.67;98708.44;6241959;27;96469;-61
2022/07/14 08:08:49;;;;;;;;;7.80;7.80;;;;;32.85;27.79;98708.97;6260097;27;97562;-59
2022/07/14 08:11:53;;;;;;;;;6.00;6.00;;;;;32.92;27.60;98714.69;6261967;27;97647;-61
2022/07/14 08:14:56;;;;;;;;;7.40;7.40;;;;;32.99;27.52;98707.22;6247160;27;97421;-62
2022/07/14 08:18:00;;;;;;;;;5.60;5.60;;;;;33.11;27.47;98714.59;6261709;27;97403;-57
2022/07/14 08:21:05;;;;;;;;;7.00;6.80;;;;;33.20;27.42;98714.38;6260557;27;97659;-59
2022/07/14 08:24:08;;;;;;;;;8.00;7.60;;;;;33.28;27.42;98711.28;6259601;27;97711;-59
2022/07/14 08:27:12;;;;;;;;;8.25;8.00;;;;;33.40;27.40;98702.72;6231925;27;97968;-60
2022/07/14 08:30:15;;;;;;;;;8.00;7.00;;;;;33.51;26.97;98706.47;6259830;27;97488;-54
2022/07/14 08:33:19;;;;;;;;;8.60;8.00;;;;;33.46;26.78;98678.84;6260302;27;96657;-64
2022/07/14 08:36:24;;;;;;;;;8.00;7.00;;;;;33.69;27.39;98694.72;6260313;27;97341;-52
2022/07/14 08:39:27;;;;;;;;;9.00;8.50;;;;;33.68;27.02;98698.72;6259955;27;97292;-56
2022/07/14 08:42:32;;;;;;;;;5.60;5.00;;;;;33.65;26.82;98686.28;6237455;27;97745;-58
2022/07/14 08:45:40;;;;;;;;;8.00;8.00;;;;;33.68;26.84;98688.34;6251662;27;96921;-58
2022/07/14 08:48:44;;;;;;;;;8.40;8.00;;;;;33.67;27.00;98688.69;6241202;27;100498;-55
2022/07/14 08:51:52;;;;;;;;;10.00;10.00;;;;;33.75;27.38;98694.03;6259935;27;97459;-59
2022/07/14 08:54:56;;;;;;;;;10.00;9.60;;;;;33.80;27.27;98687.28;6259217;27;97080;-62
2022/07/14 08:57:59;;;;;;;;;12.40;12.20;;;;;33.84;26.76;98685.34;6254570;27;97267;-58
2022/07/14 09:01:03;;;;;;;;;9.40;9.40;;;;;33.88;27.38;98686.19;6259204;27;97414;-58
2022/07/14 09:04:07;;;;;;;;;9.25;9.25;;;;;33.90;27.30;98690.22;6265687;27;96516;-57
2022/07/14 09:07:12;;;;;;;;;9.00;9.00;;;;;33.98;27.20;98690.31;6266302;27;96496;-62
2022/07/14 09:10:17;;;;;;;;;10.00;9.80;;;;;34.01;26.92;98689.56;6248073;27;96850;-59
2022/07/14 09:13:24;;;;;;;;;13.80;13.80;;;;;34.03;27.09;98696.38;6265667;27;97427;-61
2022/07/14 09:16:27;;;;;;;;;9.60;9.60;;;;;34.01;27.02;98679.16;6265868;27;97078;-56
2022/07/14 09:19:32;;;;;;;;;9.00;8.80;;;;;34.04;26.98;98692.38;6264394;27;97983;-65
2022/07/14 09:22:38;;;;;;;;;10.60;10.00;;;;;34.13;27.46;98678.09;6264140;27;96610;-58
2022/07/14 09:25:42;;;;;;;;;13.00;13.00;;;;;34.18;26.47;98681.38;6263923;27;97023;-61
2022/07/14 09:28:48;;;;;;;;;10.00;10.00;;;;;34.12;26.59;98670.88;6264481;27;96672;-62
2022/07/14 09:31:52;;;;;;;;;10.00;10.00;;;;;34.15;26.98;98656.94;6265779;27;97452;-61
2022/07/14 09:35:00;;;;;;;;;8.40;8.00;;;;;34.31;26.63;98679.91;6262266;27;96651;-55
2022/07/14 09:38:17;;;;;;;;;9.00;9.00;;;;;34.40;26.44;98664.81;6265719;27;96787;-57
2022/07/14 09:41:20;;;;;;;;;10.00;9.50;;;;;34.47;26.12;98670.47;6265735;27;97389;-60
2022/07/14 09:44:24;;;;;;;;;9.20;8.80;;;;;34.53;26.79;98669.75;6263562;27;97202;-60
2022/07/14 09:47:28;;;;;;;;;12.00;12.00;;;;;34.60;26.31;98677.41;6264014;27;97461;-56
2022/07/14 09:50:44;;;;;;;;;14.80;14.80;;;;;34.69;26.27;98680.72;6263744;27;97671;-59
2022/07/14 09:53:49;;;;;;;;;10.00;9.60;;;;;34.71;26.79;98672.72;6264846;27;97423;-61
2022/07/14 09:56:53;;;;;;;;;14.00;13.00;;;;;34.79;26.27;98680.00;6264159;27;97176;-58
2022/07/14 10:00:10;;;;;;;;;11.00;10.00;;;;;34.87;25.63;98673.25;6263913;27;96939;-56
2022/07/14 10:03:13;;;;;;;;;8.00;8.00;;;;;34.96;25.64;98668.13;6264737;27;97636;-58
2022/07/14 10:06:18;;;;;;;;;12.00;11.00;;;;;34.94;26.69;98662.13;6264980;27;96670;-61
2022/07/14 10:09:40;;;;;;;;;8.60;8.60;;;;;35.13;25.45;98661.84;6246100;27;97478;-68
2022/07/14 10:12:44;;;;;;;;;14.40;14.00;;;;;35.16;25.04;98672.28;6264168;27;97470;-60
2022/07/14 10:15:50;;;;;;;;;9.00;9.00;;;;;35.20;26.12;98667.53;6264866;27;97184;-59
2022/07/14 10:18:53;;;;;;;;;12.60;12.60;;;;;35.32;25.26;98669.22;6246517;27;97518;-56
2022/07/14 10:21:58;;;;;;;;;11.50;11.50;;;;;35.41;25.16;98663.25;6264745;27;97482;-58
2022/07/14 10:25:06;;;;;;;;;10.60;10.00;;;;;35.40;25.47;98667.22;6264312;27;97992;-60
2022/07/14 10:28:15;;;;;;;;;14.00;14.00;;;;;35.36;25.02;98653.22;6260647;27;96788;-59
2022/07/14 10:31:25;;;;;;;;;10.00;9.50;;;;;35.36;25.18;98660.81;6263165;27;97519;-56
2022/07/14 10:34:37;;;;;;;;;10.00;10.00;;;;;35.40;25.61;98659.63;6263352;27;98011;-59
2022/07/14 10:37:52;;;;;;;;;8.60;8.60;;;;;35.34;25.23;98657.59;6263634;27;97173;-53
2022/07/14 10:41:20;;;;;;;;;10.00;10.00;;;;;35.34;25.38;98663.19;6244258;27;98385;-62
2022/07/14 10:44:27;;;;;;;;;10.75;10.75;;;;;35.34;24.84;98647.19;6244277;27;97647;-59
2022/07/14 10:47:45;;;;;;;;;9.00;9.00;;;;;35.38;25.20;98645.22;6263084;27;97314;-64
2022/07/14 10:51:18;;;;;;;;;12.00;11.60;;;;;35.39;25.14;98652.41;6264341;27;97022;-56
2022/07/14 10:54:24;;;;;;;;;9.60;9.60;;;;;35.40;25.22;98651.22;6260884;27;96389;-61
2022/07/14 10:58:23;;;;;;;;;11.00;11.00;;;;;35.49;24.94;98651.66;6264330;27;97624;-56
2022/07/14 11:01:28;;;;;;;;;12.00;11.00;;;;;35.56;24.96;98645.31;6263807;27;97469;-61
2022/07/14 11:05:03;;;;;;;;;9.00;9.00;;;;;35.64;24.73;98644.94;6264006;27;96563;-63
2022/07/14 11:08:11;;;;;;;;;11.00;10.40;;;;;35.66;24.54;98647.38;6263462;27;96781;-57
2022/07/14 11:11:18;;;;;;;;;8.80;8.80;;;;;35.68;24.15;98641.38;6263830;27;96961;-56
2022/07/14 11:14:25;;;;;;;;;10.40;10.00;;;;;35.68;24.19;98627.38;6246064;27;96982;-61
2022/07/14 11:17:39;;;;;;;;;10.00;9.40;;;;;35.67;24.56;98629.38;6263806;27;97462;-59
2022/07/14 11:20:50;;;;;;;;;7.60;7.60;;;;;35.71;24.14;98624.56;6245107;27;96614;-63
2022/07/14 11:23:55;;;;;;;;;8.00;8.00;;;;;35.72;24.32;98623.38;6262767;27;97116;-57
2022/07/14 11:27:29;;;;;;;;;9.00;9.00;;;;;35.76;24.46;98624.19;6260727;27;97550;-58
2022/07/14 11:30:32;;;;;;;;;7.00;6.50;;;;;35.85;24.44;98623.81;6261896;27;97499;-58
2022/07/14 11:36:17;;;;;;;;;8.80;7.80;;;;;35.92;24.24;98619.00;6260467;27;97187;-56
2022/07/14 11:37:02;;;;;;;;;8.00;7.00;;;;;35.97;23.94;98618.63;6258588;27;96566;-55
2022/07/14 11:40:47;;;;;;;;;8.60;8.60;;;;;36.07;24.49;98610.66;6260352;27;97463;-58
2022/07/14 11:43:54;;;;;;;;;11.00;11.00;;;;;36.06;23.67;98609.84;6260349;27;97235;-57
2022/07/14 11:47:02;;;;;;;;;6.80;6.80;;;;;36.04;24.24;98609.41;6260253;27;97466;-56
2022/07/14 11:50:08;;;;;;;;;9.00;9.00;;;;;35.97;24.27;98593.38;6227068;27;98855;-61
2022/07/14 11:53:16;;;;;;;;;9.60;9.00;;;;;36.01;24.28;98608.22;6260170;27;97299;-60
2022/07/14 11:56:23;;;;;;;;;10.40;10.00;;;;;36.05;24.55;98600.63;6260389;27;97965;-57
2022/07/14 11:59:30;;;;;;;;;10.40;10.40;;;;;36.05;24.09;98599.81;6241834;27;97789;-59
2022/07/14 12:02:35;;;;;;;;;10.20;10.00;;;;;36.06;24.12;98601.41;6260951;27;97453;-62
2022/07/14 12:05:40;;;;;;;;;8.00;8.00;;;;;36.07;24.84;98596.63;6260640;27;97559;-61
2022/07/14 12:08:44;;;;;;;;;9.00;9.00;;;;;36.06;24.96;98595.81;6228622;27;96979;-61
2022/07/14 12:12:08;;;;;;;;;9.00;9.00;;;;;36.11;24.34;98591.81;6260996;27;96708;-63
2022/07/14 12:15:11;;;;;;;;;9.00;9.00;;;;;36.19;23.68;98602.66;6242328;27;98488;-59
2022/07/14 12:18:15;;;;;;;;;8.60;8.60;;;;;36.19;24.21;98593.44;6260881;27;97433;-62
2022/07/14 12:21:32;;;;;;;;;8.00;7.20;;;;;36.16;24.49;98597.06;6260542;27;97257;-59
2022/07/14 12:24:35;;;;;;;;;8.50;8.50;;;;;36.18;23.88;98594.63;6260831;27;97420;-54
2022/07/14 12:27:39;;;;;;;;;10.00;10.00;;;;;36.21;24.49;98583.44;6258976;27;97595;-64
2022/07/14 12:30:44;;;;;;;;;10.20;10.00;;;;;36.27;23.62;98586.63;6260561;27;97206;-61
2022/07/14 12:33:51;;;;;;;;;11.00;10.80;;;;;36.27;23.79;98583.81;6260054;27;96748;-61
2022/07/14 12:36:59;;;;;;;;;9.75;9.00;;;;;36.28;23.82;98580.63;6260940;27;97462;-58
2022/07/14 12:40:03;;;;;;;;;7.00;6.00;;;;;36.30;24.31;98572.59;6260610;27;97205;-54
2022/07/14 12:43:09;;;;;;;;;8.00;8.00;;;;;36.16;23.90;98566.19;6259983;27;97502;-61
2022/07/14 12:46:17;;;;;;;;;9.00;9.00;;;;;36.15;23.75;98578.59;6241782;27;99134;-58
2022/07/14 12:49:20;;;;;;;;;9.40;9.40;;;;;36.08;23.86;98568.13;6258630;27;96899;-56
2022/07/14 12:52:25;;;;;;;;;9.25;8.25;;;;;36.08;24.72;98565.31;6260137;27;97436;-59
2022/07/14 12:55:34;;;;;;;;;6.00;6.00;;;;;36.13;24.57;98566.94;6260564;27;96707;-59
2022/07/14 12:58:38;;;;;;;;;7.00;7.00;;;;;36.16;24.03;98571.78;6258336;27;96560;-59
2022/07/14 13:01:51;;;;;;;;;9.00;8.00;;;;;36.05;24.32;98561.31;6261337;27;96680;-61
2022/07/14 13:05:01;;;;;;;;;8.00;8.00;;;;;36.01;23.88;98566.13;6255840;27;97021;-58
2022/07/14 13:08:37;;;;;;;;;8.00;7.00;;;;;35.95;23.60;98559.31;6261918;27;96574;-62
2022/07/14 13:11:41;;;;;;;;;9.00;9.00;;;;;35.93;24.14;98561.69;6243867;27;97461;-60
2022/07/14 13:14:56;;;;;;;;;7.40;7.40;;;;;35.87;24.26;98563.28;6261343;27;97461;-61
2022/07/14 13:18:00;;;;;;;;;11.00;10.50;;;;;35.82;24.52;98560.09;6261333;27;97549;-63
2022/07/14 13:21:05;;;;;;;;;8.50;8.00;;;;;35.70;24.85;98552.84;6240766;27;98550;-57
2022/07/14 13:24:14;;;;;;;;;9.40;8.60;;;;;35.55;24.69;98556.75;6243055;27;97380;-56
2022/07/14 13:27:19;;;;;;;;;9.80;9.80;;;;;35.37;24.70;98545.50;6261716;27;96483;-56
2022/07/14 13:30:22;;;;;;;;;10.40;10.00;;;;;35.18;25.04;98549.44;6261110;27;97578;-59
2022/07/14 13:33:26;;;;;;;;;8.20;8.00;;;;;34.97;25.45;98549.28;6261501;27;97478;-59
2022/07/14 13:36:30;;;;;;;;;7.20;7.20;;;;;34.78;25.64;98547.56;6261421;27;97039;-54
2022/07/14 13:39:37;;;;;;;;;7.40;7.00;;;;;34.61;26.07;98539.00;6261573;27;97500;-59
2022/07/14 13:42:41;;;;;;;;;6.60;6.00;;;;;34.45;25.96;98542.13;6261544;27;97440;-59
2022/07/14 13:45:44;;;;;;;;;7.50;7.00;;;;;34.29;26.35;98534.00;6262300;27;96387;-58
2022/07/14 13:48:47;;;;;;;;;10.00;9.00;;;;;34.08;26.63;98511.38;6246613;27;96668;-54
2022/07/14 13:52:09;;;;;;;;;10.00;10.00;;;;;33.98;27.34;98514.88;6265471;27;96580;-54
2022/07/14 13:55:14;;;;;;;;;9.00;9.00;;;;;33.84;26.88;98509.97;6264977;27;96679;-59
2022/07/14 13:58:17;;;;;;;;;8.80;8.00;;;;;33.70;27.02;98504.25;6242999;27;96568;-56
2022/07/14 14:01:21;;;;;;;;;8.00;8.00;;;;;33.55;27.60;98530.41;6265541;27;97063;-53
2022/07/14 14:04:25;;;;;;;;;8.00;8.00;;;;;33.42;27.90;98559.81;6265277;27;97111;-57
2022/07/14 14:07:28;;;;;;;;;7.00;7.00;;;;;33.30;28.08;98605.56;6264567;27;97456;-59
2022/07/14 14:10:33;;;;;;;;;10.60;9.00;;;;;32.99;31.71;98679.28;6263483;27;97210;-53
2022/07/14 14:13:42;;;;;;;;;6.00;6.00;;;;;32.65;29.70;98635.66;6263356;27;96495;-56
2022/07/14 14:16:45;;;;;;;;;8.00;7.00;;;;;32.32;34.10;98611.16;6263417;27;96571;-57
2022/07/14 14:19:52;;;;;;;;;7.00;7.00;;;;;32.01;35.82;98586.28;6260726;27;97434;-59
2022/07/14 14:22:55;;;;;;;;;8.40;7.00;;;;;31.73;38.36;98578.19;6262831;27;98039;-60
2022/07/14 14:26:01;;;;;;;;;7.33;7.33;;;;;31.51;40.28;98576.94;6263228;27;97262;-61
2022/07/14 14:29:05;;;;;;;;;9.00;8.00;;;;;31.34;41.21;98561.47;6236294;27;97425;-68
2022/07/14 14:32:17;;;;;;;;;9.00;9.00;;;;;31.21;43.59;98553.63;6262788;27;97473;-63
2022/07/14 14:35:21;;;;;;;;;8.60;8.60;;;;;31.09;43.58;98540.63;6244413;27;97323;-57
2022/07/14 14:38:25;;;;;;;;;9.20;9.00;;;;;30.92;42.96;98544.63;6262928;27;97565;-60
2022/07/14 14:41:30;;;;;;;;;9.00;8.00;;;;;30.77;41.92;98531.56;6263066;27;96977;-58